Observation data for Northwest San Angelo on 01/19/2019      Previous  Date  Next       Current Mesonet Observations  Soil Data  Daily Summary Page  Observations in Plain Language
KASU 190600Z 31016G21KT 11/02 A2994 RMK A01 T01090021  RH  055%=      5-min Rain = 0
KASU 190605Z 32016G22KT 11/02 A2995 RMK A01 T01050016  RH  055%=      5-min Rain = 0
KASU 190610Z 33017G24KT 10/01 A2996 RMK A01 T01020007  RH  053%=      5-min Rain = 0
KASU 190615Z 32018G24KT 10/01 A2996 RMK A01 T01030007  RH  052%=      5-min Rain = 0
KASU 190620Z 32019G34KT 10/01 A2997 RMK A01 T01030008  RH  052%=      5-min Rain = 0
KASU 190625Z 32027G37KT 10/M00 A2998 RMK A01 T01001001  RH  050%=      5-min Rain = 0
KASU 190630Z 31025G38KT 09/M01 A2999 RMK A01 T00931007  RH  050%=      5-min Rain = 0
KASU 190635Z 32022G33KT 09/M01 A30 RMK A01 T00901006  RH  051%=      5-min Rain = 0
KASU 190640Z 33026G35KT 08/M01 A30 RMK A01 T00831012  RH  051%=      5-min Rain = 0
KASU 190645Z 33026G34KT 08/M02 A30 RMK A01 T00791016  RH  051%=      5-min Rain = 0
KASU 190650Z 32023G31KT 08/M02 A30 RMK A01 T00781017  RH  051%=      5-min Rain = 0
KASU 190655Z 32017G23KT 08/M02 A3001 RMK A01 T00771017  RH  052%=      5-min Rain = 0
KASU 190700Z 31015G29KT 08/M02 A3001 RMK A01 T00761018  RH  052%=      5-min Rain = 0
KASU 190705Z 31019G26KT 08/M02 A3001 RMK A01 T00751019  RH  052%=      5-min Rain = 0
KASU 190710Z 31019G28KT 07/M02 A3001 RMK A01 T00741019  RH  052%=      5-min Rain = 0
KASU 190715Z 31018G25KT 07/M02 A3001 RMK A01 T00741019  RH  052%=      5-min Rain = 0
KASU 190720Z 32018G25KT 07/M02 A3001 RMK A01 T00721019  RH  053%=      5-min Rain = 0
KASU 190725Z 32016G24KT 07/M02 A3001 RMK A01 T00691019  RH  054%=      5-min Rain = 0
KASU 190730Z 31017G22KT 07/M02 A3002 RMK A01 T00681020  RH  054%=      5-min Rain = 0
KASU 190735Z 31023G32KT 07/M03 A3002 RMK A01 T00671025  RH  052%=      5-min Rain = 0
KASU 190740Z 32023G31KT 07/M03 A3002 RMK A01 T00661027  RH  052%=      5-min Rain = 0
KASU 190745Z 32018G26KT 06/M03 A3003 RMK A01 T00641026  RH  053%=      5-min Rain = 0
KASU 190750Z 31016G22KT 06/M03 A3003 RMK A01 T00631025  RH  053%=      5-min Rain = 0
KASU 190755Z 32018G24KT 06/M03 A3003 RMK A01 T00641026  RH  053%=      5-min Rain = 0
KASU 190800Z 32018G23KT 07/M03 A3003 RMK A01 T00651026  RH  053%=      5-min Rain = 0
KASU 190805Z 31019G26KT 07/M03 A3004 RMK A01 T00651026  RH  053%=      5-min Rain = 0
KASU 190810Z 31019G25KT 07/M03 A3004 RMK A01 T00651027  RH  052%=      5-min Rain = 0
KASU 190815Z 31019G28KT 07/M03 A3004 RMK A01 T00651028  RH  052%=      5-min Rain = 0
KASU 190820Z 31019G24KT 06/M03 A3004 RMK A01 T00641029  RH  052%=      5-min Rain = 0
KASU 190825Z 31020G26KT 06/M03 A3004 RMK A01 T00641030  RH  051%=      5-min Rain = 0
KASU 190830Z 31016G26KT 06/M03 A3005 RMK A01 T00641028  RH  052%=      5-min Rain = 0
KASU 190835Z 31020G30KT 06/M03 A3005 RMK A01 T00631028  RH  053%=      5-min Rain = 0
KASU 190840Z 32020G26KT 06/M03 A3006 RMK A01 T00621027  RH  053%=      5-min Rain = 0
KASU 190845Z 31018G25KT 06/M03 A3006 RMK A01 T00601025  RH  055%=      5-min Rain = 0
KASU 190850Z 32017G24KT 06/M02 A3007 RMK A01 T00591024  RH  056%=      5-min Rain = 0
KASU 190855Z 32019G29KT 06/M02 A3007 RMK A01 T00571024  RH  056%=      5-min Rain = 0
KASU 190900Z 32021G28KT 05/M02 A3008 RMK A01 T00531023  RH  058%=      5-min Rain = 0
KASU 190905Z 32020G30KT 05/M02 A3008 RMK A01 T00521023  RH  059%=      5-min Rain = 0
KASU 190910Z 33021G29KT 05/M02 A3009 RMK A01 T00491021  RH  061%=      5-min Rain = 0
KASU 190915Z 32020G27KT 05/M02 A3009 RMK A01 T00461021  RH  062%=      5-min Rain = 0
KASU 190920Z 32021G28KT 04/M02 A301 RMK A01 T00441020  RH  064%=      5-min Rain = 0
KASU 190925Z 32019G28KT 04/M02 A301 RMK A01 T00431020  RH  064%=      5-min Rain = 0
KASU 190930Z 32018G23KT 04/M02 A3011 RMK A01 T00411020  RH  065%=      5-min Rain = 0
KASU 190935Z 32019G26KT 04/M02 A3011 RMK A01 T00401020  RH  065%=      5-min Rain = 0
KASU 190940Z 32018G27KT 04/M02 A3012 RMK A01 T00391020  RH  066%=      5-min Rain = 0
KASU 190945Z 32017G23KT 04/M02 A3012 RMK A01 T00381019  RH  067%=      5-min Rain = 0
KASU 190950Z 32020G31KT 04/M02 A3012 RMK A01 T00381020  RH  066%=      5-min Rain = 0
KASU 190955Z 33018G24KT 04/M02 A3013 RMK A01 T00391021  RH  065%=      5-min Rain = 0
KASU 191000Z 33019G27KT 04/M02 A3013 RMK A01 T00391022  RH  065%=      5-min Rain = 0
KASU 191005Z 33018G23KT 04/M02 A3014 RMK A01 T00371022  RH  066%=      5-min Rain = 0
KASU 191010Z 33014G19KT 04/M02 A3014 RMK A01 T00361022  RH  067%=      5-min Rain = 0
KASU 191015Z 33013G19KT 04/M02 A3014 RMK A01 T00351021  RH  067%=      5-min Rain = 0
KASU 191020Z 33011KT 03/M02 A3014 RMK A01 T00341020  RH  068%=      5-min Rain = 0
KASU 191025Z 32010KT 03/M02 A3015 RMK A01 T00341020  RH  068%=      5-min Rain = 0
KASU 191030Z 32011KT 04/M02 A3015 RMK A01 T00351020  RH  068%=      5-min Rain = 0
KASU 191035Z 32013G19KT 04/M02 A3015 RMK A01 T00371021  RH  066%=      5-min Rain = 0
KASU 191040Z 32014G21KT 04/M02 A3014 RMK A01 T00401021  RH  065%=      5-min Rain = 0
KASU 191045Z 31012G17KT 04/M02 A3014 RMK A01 T00401022  RH  065%=      5-min Rain = 0
KASU 191050Z 31010G16KT 04/M02 A3014 RMK A01 T00391022  RH  065%=      5-min Rain = 0
KASU 191055Z 31012G17KT 04/M02 A3015 RMK A01 T00411022  RH  064%=      5-min Rain = 0
KASU 191100Z 31011KT 04/M02 A3015 RMK A01 T00441021  RH  063%=      5-min Rain = 0
KASU 191105Z 31013G19KT 05/M02 A3015 RMK A01 T00451020  RH  063%=      5-min Rain = 0
KASU 191110Z 31015G21KT 05/M02 A3015 RMK A01 T00471020  RH  062%=      5-min Rain = 0
KASU 191115Z 31014G20KT 05/M02 A3015 RMK A01 T00481020  RH  062%=      5-min Rain = 0
KASU 191120Z 31015G21KT 05/M02 A3015 RMK A01 T00491021  RH  061%=      5-min Rain = 0
KASU 191125Z 32013G19KT 05/M02 A3015 RMK A01 T00491021  RH  061%=      5-min Rain = 0
KASU 191130Z 31014G23KT 05/M02 A3015 RMK A01 T00491021  RH  061%=      5-min Rain = 0
KASU 191135Z 31014G19KT 05/M02 A3015 RMK A01 T00501021  RH  061%=      5-min Rain = 0
KASU 191140Z 31015G20KT 05/M02 A3015 RMK A01 T00491022  RH  060%=      5-min Rain = 0
KASU 191145Z 32014KT 05/M02 A3015 RMK A01 T00471023  RH  061%=      5-min Rain = 0
KASU 191150Z 31013G18KT 05/M02 A3016 RMK A01 T00451024  RH  061%=      5-min Rain = 0
KASU 191155Z 31011G17KT 04/M02 A3016 RMK A01 T00431023  RH  062%=      5-min Rain = 0
KASU 191200Z 31010G15KT 04/M02 A3016 RMK A01 T00421023  RH  063%=      5-min Rain = 0
KASU 191205Z 31013G19KT 04/M02 A3017 RMK A01 T00421024  RH  063%=      5-min Rain = 0
KASU 191210Z 31013KT 04/M03 A3017 RMK A01 T00401026  RH  063%=      5-min Rain = 0
KASU 191215Z 31013G18KT 04/M03 A3017 RMK A01 T00401027  RH  062%=      5-min Rain = 0
KASU 191220Z 31012G18KT 04/M03 A3018 RMK A01 T00401028  RH  062%=      5-min Rain = 0
KASU 191225Z 31013G19KT 04/M03 A3018 RMK A01 T00391029  RH  061%=      5-min Rain = 0
KASU 191230Z 32014G22KT 04/M03 A3018 RMK A01 T00381030  RH  061%=      5-min Rain = 0
KASU 191235Z 31013KT 04/M03 A3019 RMK A01 T00391032  RH  060%=      5-min Rain = 0
KASU 191240Z 31011KT 04/M03 A3019 RMK A01 T00371033  RH  060%=      5-min Rain = 0
KASU 191245Z 32012G17KT 04/M04 A3019 RMK A01 T00371035  RH  060%=      5-min Rain = 0
KASU 191250Z 32016G22KT 04/M04 A302 RMK A01 T00381037  RH  058%=      5-min Rain = 0
KASU 191255Z 32016G24KT 04/M04 A302 RMK A01 T00381039  RH  058%=      5-min Rain = 0
KASU 191300Z 31016G22KT 04/M04 A302 RMK A01 T00371040  RH  057%=      5-min Rain = 0
KASU 191305Z 31013G18KT 04/M04 A302 RMK A01 T00361040  RH  058%=      5-min Rain = 0
KASU 191310Z 32014G22KT 03/M04 A3021 RMK A01 T00341040  RH  058%=      5-min Rain = 0
KASU 191315Z 33015G23KT 03/M04 A3021 RMK A01 T00341041  RH  058%=      5-min Rain = 0
KASU 191320Z 32014G19KT 03/M04 A3021 RMK A01 T00331042  RH  058%=      5-min Rain = 0
KASU 191325Z 32013G19KT 03/M04 A3022 RMK A01 T00321042  RH  059%=      5-min Rain = 0
KASU 191330Z 32013KT 03/M04 A3022 RMK A01 T00311043  RH  059%=      5-min Rain = 0
KASU 191335Z 32010G17KT 03/M04 A3023 RMK A01 T00311043  RH  059%=      5-min Rain = 0
KASU 191340Z 32010KT 03/M04 A3024 RMK A01 T00281043  RH  060%=      5-min Rain = 0
KASU 191345Z 31009G15KT 03/M04 A3024 RMK A01 T00291043  RH  059%=      5-min Rain = 0
KASU 191350Z 31009G14KT 03/M04 A3025 RMK A01 T00291043  RH  059%=      5-min Rain = 0
KASU 191355Z 31009G15KT 03/M04 A3025 RMK A01 T00281043  RH  060%=      5-min Rain = 0
KASU 191400Z 32010KT 03/M04 A3025 RMK A01 T00291043  RH  059%=      5-min Rain = 0
KASU 191405Z 32011G17KT 03/M04 A3025 RMK A01 T00301043  RH  059%=      5-min Rain = 0
KASU 191410Z 32011KT 03/M04 A3026 RMK A01 T00311044  RH  058%=      5-min Rain = 0
KASU 191415Z 32010KT 03/M04 A3026 RMK A01 T00321044  RH  058%=      5-min Rain = 0
KASU 191420Z 32012KT 03/M04 A3027 RMK A01 T00331044  RH  057%=      5-min Rain = 0
KASU 191425Z 32012KT 03/M04 A3027 RMK A01 T00341043  RH  057%=      5-min Rain = 0
KASU 191430Z 32011G16KT 04/M04 A3027 RMK A01 T00361043  RH  057%=      5-min Rain = 0
KASU 191435Z 32013G19KT 04/M04 A3027 RMK A01 T00371043  RH  056%=      5-min Rain = 0
KASU 191440Z 31013G21KT 04/M04 A3028 RMK A01 T00381043  RH  055%=      5-min Rain = 0
KASU 191445Z 31014KT 04/M04 A3028 RMK A01 T00401043  RH  055%=      5-min Rain = 0
KASU 191450Z 31016G22KT 04/M04 A3028 RMK A01 T00401044  RH  054%=      5-min Rain = 0
KASU 191455Z 32015G20KT 04/M05 A3028 RMK A01 T00411045  RH  054%=      5-min Rain = 0
KASU 191500Z 32017KT 04/M05 A3028 RMK A01 T00411045  RH  054%=      5-min Rain = 0
KASU 191505Z 32015G20KT 04/M04 A3029 RMK A01 T00421044  RH  054%=      5-min Rain = 0
KASU 191510Z 32016G21KT 04/M05 A3029 RMK A01 T00431045  RH  053%=      5-min Rain = 0
KASU 191515Z 32015G20KT 04/M04 A303 RMK A01 T00441044  RH  053%=      5-min Rain = 0
KASU 191520Z 33016G21KT 05/M04 A303 RMK A01 T00461044  RH  052%=      5-min Rain = 0
KASU 191525Z 32017G24KT 05/M05 A303 RMK A01 T00461045  RH  052%=      5-min Rain = 0
KASU 191530Z 32016G23KT 05/M04 A303 RMK A01 T00481042  RH  052%=      5-min Rain = 0
KASU 191535Z 33018G25KT 05/M05 A303 RMK A01 T00481045  RH  051%=      5-min Rain = 0
KASU 191540Z 32016G21KT 05/M04 A303 RMK A01 T00511043  RH  051%=      5-min Rain = 0
KASU 191545Z 32016G24KT 05/M04 A3031 RMK A01 T00531043  RH  050%=      5-min Rain = 0
KASU 191550Z 32018G23KT 05/M05 A3031 RMK A01 T00541046  RH  049%=      5-min Rain = 0
KASU 191555Z 32020KT 06/M05 A3031 RMK A01 T00561046  RH  048%=      5-min Rain = 0
KASU 191600Z 32016G24KT 06/M05 A3032 RMK A01 T00581045  RH  048%=      5-min Rain = 0
KASU 191605Z 33017G25KT 06/M04 A3031 RMK A01 T00611044  RH  047%=      5-min Rain = 0
KASU 191610Z 32018G24KT 06/M05 A3032 RMK A01 T00621045  RH  046%=      5-min Rain = 0
KASU 191615Z 33019G24KT 06/M05 A3032 RMK A01 T00631046  RH  046%=      5-min Rain = 0
KASU 191620Z 32019G26KT 07/M04 A3032 RMK A01 T00651044  RH  046%=      5-min Rain = 0
KASU 191625Z 33019G25KT 07/M05 A3032 RMK A01 T00661045  RH  045%=      5-min Rain = 0
KASU 191630Z 33020G27KT 07/M05 A3033 RMK A01 T00671046  RH  045%=      5-min Rain = 0
KASU 191635Z 33021G29KT 07/M05 A3033 RMK A01 T00681046  RH  044%=      5-min Rain = 0
KASU 191640Z 33020G26KT 07/M04 A3033 RMK A01 T00701044  RH  044%=      5-min Rain = 0
KASU 191645Z 33019G26KT 07/M04 A3033 RMK A01 T00711043  RH  044%=      5-min Rain = 0
KASU 191650Z 33020G25KT 07/M04 A3033 RMK A01 T00711044  RH  044%=      5-min Rain = 0
KASU 191655Z 33018G23KT 07/M04 A3033 RMK A01 T00741043  RH  043%=      5-min Rain = 0
KASU 191700Z 32018G24KT 08/M04 A3032 RMK A01 T00761040  RH  044%=      5-min Rain = 0
KASU 191705Z 32017G22KT 08/M04 A3032 RMK A01 T00761041  RH  043%=      5-min Rain = 0
KASU 191710Z 33018G24KT 08/M04 A3032 RMK A01 T00781042  RH  043%=      5-min Rain = 0
KASU 191715Z 32017G23KT 08/M04 A3032 RMK A01 T00791041  RH  043%=      5-min Rain = 0
KASU 191720Z 33021G26KT 08/M04 A3032 RMK A01 T00781043  RH  042%=      5-min Rain = 0
KASU 191725Z 33018G24KT 08/M04 A3032 RMK A01 T00821041  RH  042%=      5-min Rain = 0
KASU 191730Z 33020G28KT 08/M04 A3032 RMK A01 T00821042  RH  041%=      5-min Rain = 0
KASU 191735Z 32018G26KT 09/M04 A3032 RMK A01 T00851040  RH  041%=      5-min Rain = 0
KASU 191740Z 32019G25KT 09/M04 A3032 RMK A01 T00861039  RH  041%=      5-min Rain = 0
KASU 191745Z 32018KT 09/M04 A3032 RMK A01 T00861039  RH  041%=      5-min Rain = 0
KASU 191750Z 32019G24KT 09/M04 A3032 RMK A01 T00891038  RH  041%=      5-min Rain = 0
KASU 191755Z 32018G24KT 09/M04 A3032 RMK A01 T00891038  RH  041%=      5-min Rain = 0
KASU 191800Z 32018G23KT 09/M04 A3031 RMK A01 T00911038  RH  040%=      5-min Rain = 0
KASU 191805Z 33019G24KT 09/M04 A3031 RMK A01 T00921038  RH  040%=      5-min Rain = 0
KASU 191810Z 33019G26KT 09/M04 A3031 RMK A01 T00941039  RH  039%=      5-min Rain = 0
KASU 191815Z 32020G26KT 09/M04 A3031 RMK A01 T00931042  RH  038%=      5-min Rain = 0
KASU 191820Z 32019G25KT 09/M04 A3031 RMK A01 T00931041  RH  039%=      5-min Rain = 0
KASU 191825Z 32018G25KT 10/M04 A3031 RMK A01 T00951038  RH  039%=      5-min Rain = 0
KASU 191830Z 32017G22KT 10/M04 A3031 RMK A01 T00971038  RH  039%=      5-min Rain = 0
KASU 191835Z 33016G21KT 10/M04 A3031 RMK A01 T00991037  RH  039%=      5-min Rain = 0
KASU 191840Z 32016G26KT 11/M03 A303 RMK A01 T01051034  RH  038%=      5-min Rain = 0
KASU 191845Z 32014KT 10/M04 A303 RMK A01 T01011037  RH  038%=      5-min Rain = 0
KASU 191850Z 31015G20KT 10/M04 A303 RMK A01 T01041037  RH  037%=      5-min Rain = 0
KASU 191855Z 32016G23KT 11/M04 A303 RMK A01 T01051035  RH  037%=      5-min Rain = 0
KASU 191900Z 32018G24KT 10/M04 A3029 RMK A01 T01031039  RH  037%=      5-min Rain = 0
KASU 191905Z 32019KT 10/M04 A3029 RMK A01 T01041040  RH  036%=      5-min Rain = 0
KASU 191910Z 33017G22KT 11/M04 A3029 RMK A01 T01101036  RH  036%=      5-min Rain = 0
KASU 191915Z 32020G27KT 11/M04 A3028 RMK A01 T01091039  RH  035%=      5-min Rain = 0
KASU 191920Z 32020G27KT 11/M04 A3028 RMK A01 T01091041  RH  035%=      5-min Rain = 0
KASU 191925Z 33018G23KT 11/M04 A3028 RMK A01 T01111038  RH  035%=      5-min Rain = 0
KASU 191930Z 32018KT 11/M04 A3027 RMK A01 T01121035  RH  036%=      5-min Rain = 0
KASU 191935Z 32019G25KT 11/M04 A3027 RMK A01 T01131036  RH  035%=      5-min Rain = 0
KASU 191940Z 32020G26KT 11/M04 A3026 RMK A01 T01131038  RH  035%=      5-min Rain = 0
KASU 191945Z 33018G25KT 12/M04 A3026 RMK A01 T01151039  RH  034%=      5-min Rain = 0
KASU 191950Z 33017G22KT 12/M04 A3026 RMK A01 T01171035  RH  035%=      5-min Rain = 0
KASU 191955Z 33015G23KT 12/M03 A3026 RMK A01 T01171033  RH  035%=      5-min Rain = 0
KASU 192000Z 31017G24KT 12/M03 A3025 RMK A01 T01171034  RH  035%=      5-min Rain = 0
KASU 192005Z 32018G24KT 12/M04 A3025 RMK A01 T01191035  RH  034%=      5-min Rain = 0
KASU 192010Z 32016G21KT 12/M04 A3025 RMK A01 T01211035  RH  034%=      5-min Rain = 0
KASU 192015Z 32019G26KT 12/M03 A3025 RMK A01 T01231034  RH  033%=      5-min Rain = 0
KASU 192020Z 32018KT 12/M04 A3026 RMK A01 T01201036  RH  034%=      5-min Rain = 0
KASU 192025Z 33019G25KT 12/M04 A3025 RMK A01 T01231037  RH  033%=      5-min Rain = 0
KASU 192030Z 32016G23KT 13/M03 A3025 RMK A01 T01261034  RH  033%=      5-min Rain = 0
KASU 192035Z 32017G25KT 13/M04 A3026 RMK A01 T01251035  RH  033%=      5-min Rain = 0
KASU 192040Z 33018G26KT 13/M04 A3026 RMK A01 T01251035  RH  033%=      5-min Rain = 0
KASU 192045Z 33021G28KT 12/M04 A3026 RMK A01 T01231040  RH  032%=      5-min Rain = 0
KASU 192050Z 33018G24KT 12/M04 A3026 RMK A01 T01241037  RH  032%=      5-min Rain = 0
KASU 192055Z 32017G23KT 13/M03 A3026 RMK A01 T01271033  RH  033%=      5-min Rain = 0
KASU 192100Z 32018G24KT 12/M04 A3026 RMK A01 T01241036  RH  033%=      5-min Rain = 0
KASU 192105Z 32019G24KT 13/M04 A3026 RMK A01 T01251038  RH  032%=      5-min Rain = 0
KASU 192110Z 32018G24KT 13/M04 A3026 RMK A01 T01251036  RH  033%=      5-min Rain = 0
KASU 192115Z 32018KT 13/M04 A3026 RMK A01 T01261037  RH  032%=      5-min Rain = 0
KASU 192120Z 32019G24KT 13/M04 A3025 RMK A01 T01271035  RH  032%=      5-min Rain = 0
KASU 192125Z 33018G25KT 13/M03 A3025 RMK A01 T01271034  RH  032%=      5-min Rain = 0
KASU 192130Z 32017G24KT 13/M03 A3025 RMK A01 T01291034  RH  032%=      5-min Rain = 0
KASU 192135Z 32016G21KT 13/M03 A3025 RMK A01 T01291032  RH  033%=      5-min Rain = 0
KASU 192140Z 33017G23KT 13/M03 A3025 RMK A01 T01281034  RH  032%=      5-min Rain = 0
KASU 192145Z 33018G26KT 13/M03 A3025 RMK A01 T01291034  RH  032%=      5-min Rain = 0
KASU 192150Z 32020KT 13/M04 A3025 RMK A01 T01281036  RH  032%=      5-min Rain = 0
KASU 192155Z 32016G22KT 13/M03 A3025 RMK A01 T01281033  RH  033%=      5-min Rain = 0
KASU 192200Z 32016G23KT 13/M03 A3025 RMK A01 T01301032  RH  032%=      5-min Rain = 0
KASU 192205Z 33018G25KT 13/M03 A3025 RMK A01 T01301034  RH  032%=      5-min Rain = 0
KASU 192210Z 32017G22KT 13/M03 A3025 RMK A01 T01291033  RH  032%=      5-min Rain = 0
KASU 192215Z 32018G25KT 13/M04 A3025 RMK A01 T01281036  RH  032%=      5-min Rain = 0
KASU 192220Z 32016KT 13/M03 A3025 RMK A01 T01281034  RH  033%=      5-min Rain = 0
KASU 192225Z 32018G24KT 13/M04 A3025 RMK A01 T01271036  RH  032%=      5-min Rain = 0
KASU 192230Z 31015G21KT 13/M04 A3025 RMK A01 T01271035  RH  032%=      5-min Rain = 0
KASU 192235Z 33017KT 13/M04 A3025 RMK A01 T01281036  RH  032%=      5-min Rain = 0
KASU 192240Z 33015G21KT 13/M04 A3025 RMK A01 T01271035  RH  032%=      5-min Rain = 0
KASU 192245Z 32015KT 13/M04 A3026 RMK A01 T01271035  RH  032%=      5-min Rain = 0
KASU 192250Z 31013KT 13/M03 A3026 RMK A01 T01271034  RH  033%=      5-min Rain = 0
KASU 192255Z 32015KT 13/M03 A3025 RMK A01 T01261034  RH  033%=      5-min Rain = 0
KASU 192300Z 32016G21KT 13/M04 A3026 RMK A01 T01261035  RH  033%=      5-min Rain = 0
KASU 192305Z 32016KT 13/M04 A3026 RMK A01 T01251035  RH  033%=      5-min Rain = 0
KASU 192310Z 33016G21KT 12/M04 A3026 RMK A01 T01241036  RH  033%=      5-min Rain = 0
KASU 192315Z 33015G21KT 12/M04 A3026 RMK A01 T01231035  RH  033%=      5-min Rain = 0
KASU 192320Z 32014KT 12/M03 A3026 RMK A01 T01231034  RH  033%=      5-min Rain = 0
KASU 192325Z 32013KT 12/M03 A3026 RMK A01 T01221033  RH  034%=      5-min Rain = 0
KASU 192330Z 32014KT 12/M03 A3026 RMK A01 T01201034  RH  034%=      5-min Rain = 0
KASU 192335Z 33011KT 12/M03 A3026 RMK A01 T01191033  RH  034%=      5-min Rain = 0
KASU 192340Z 33010G15KT 12/M03 A3026 RMK A01 T01181032  RH  035%=      5-min Rain = 0
KASU 192345Z 32009KT 12/M03 A3026 RMK A01 T01161031  RH  036%=      5-min Rain = 0
KASU 192350Z 33008KT 11/M03 A3026 RMK A01 T01141030  RH  037%=      5-min Rain = 0
KASU 192355Z 33008KT 11/M03 A3026 RMK A01 T01101029  RH  038%=      5-min Rain = 0
KASU 200000Z 34007KT 11/M03 A3026 RMK A01 T01061029  RH  039%=      5-min Rain = 0
KASU 200005Z 34007KT 10/M03 A3026 RMK A01 T01011029  RH  040%=      5-min Rain = 0
KASU 200010Z 33007KT 10/M03 A3026 RMK A01 T00971027  RH  042%=      5-min Rain = 0
KASU 200015Z 34006KT 09/M03 A3026 RMK A01 T00911028  RH  043%=      5-min Rain = 0
KASU 200020Z 35006KT 09/M03 A3026 RMK A01 T00931031  RH  042%=      5-min Rain = 0
KASU 200025Z 35006KT 10/M03 A3026 RMK A01 T00951032  RH  041%=      5-min Rain = 0
KASU 200030Z 35006KT 09/M03 A3026 RMK A01 T00921032  RH  042%=      5-min Rain = 0
KASU 200035Z 35005KT 09/M03 A3026 RMK A01 T00911033  RH  042%=      5-min Rain = 0
KASU 200040Z 36004KT 09/M03 A3026 RMK A01 T00931034  RH  041%=      5-min Rain = 0
KASU 200045Z 00004KT 09/M04 A3026 RMK A01 T00921035  RH  041%=      5-min Rain = 0
KASU 200050Z 00004KT 09/M04 A3027 RMK A01 T00881035  RH  042%=      5-min Rain = 0
KASU 200055Z 00004KT 09/M03 A3027 RMK A01 T00871034  RH  043%=      5-min Rain = 0
KASU 200100Z 36004KT 09/M04 A3027 RMK A01 T00871035  RH  042%=      5-min Rain = 0
KASU 200105Z 00005KT 09/M04 A3027 RMK A01 T00871035  RH  042%=      5-min Rain = 0
KASU 200110Z 00004KT 09/M04 A3027 RMK A01 T00871035  RH  042%=      5-min Rain = 0
KASU 200115Z 01003KT 09/M04 A3028 RMK A01 T00851035  RH  043%=      5-min Rain = 0
KASU 200120Z 02003KT 08/M03 A3028 RMK A01 T00811033  RH  045%=      5-min Rain = 0
KASU 200125Z 02003KT 08/M03 A3028 RMK A01 T00801033  RH  045%=      5-min Rain = 0
KASU 200130Z 02003KT 08/M03 A3028 RMK A01 T00801034  RH  045%=      5-min Rain = 0
KASU 200135Z 02002KT 08/M03 A3028 RMK A01 T00801034  RH  045%=      5-min Rain = 0
KASU 200140Z 02002KT 07/M03 A3028 RMK A01 T00731033  RH  047%=      5-min Rain = 0
KASU 200145Z 02002KT 07/M03 A3029 RMK A01 T00691033  RH  048%=      5-min Rain = 0
KASU 200150Z 01001KT 07/M03 A3029 RMK A01 T00661033  RH  050%=      5-min Rain = 0
KASU 200155Z 01002KT 06/M03 A3029 RMK A01 T00581031  RH  053%=      5-min Rain = 0
KASU 200200Z 00002KT 06/M03 A3029 RMK A01 T00551031  RH  054%=      5-min Rain = 0
KASU 200205Z 34002KT 06/M03 A303 RMK A01 T00591032  RH  053%=      5-min Rain = 0
KASU 200210Z 34001KT 05/M03 A303 RMK A01 T00541031  RH  055%=      5-min Rain = 0
KASU 200215Z 01002KT 05/M03 A303 RMK A01 T00511031  RH  056%=      5-min Rain = 0
KASU 200220Z 36002KT 05/M03 A3031 RMK A01 T00501032  RH  056%=      5-min Rain = 0
KASU 200225Z 31002KT 04/M03 A3031 RMK A01 T00421030  RH  060%=      5-min Rain = 0
KASU 200230Z 27003KT 03/M03 A3031 RMK A01 T00291031  RH  065%=      5-min Rain = 0
KASU 200235Z 28003KT 03/M03 A3031 RMK A01 T00291027  RH  067%=      5-min Rain = 0
KASU 200240Z 31003KT 03/M03 A3031 RMK A01 T00331026  RH  065%=      5-min Rain = 0
KASU 200245Z 33003KT 04/M03 A3031 RMK A01 T00361027  RH  064%=      5-min Rain = 0
KASU 200250Z 34003KT 04/M03 A3031 RMK A01 T00411029  RH  060%=      5-min Rain = 0
KASU 200255Z 00002KT 04/M03 A3031 RMK A01 T00421031  RH  060%=      5-min Rain = 0
KASU 200300Z 04002KT 04/M03 A3031 RMK A01 T00421031  RH  059%=      5-min Rain = 0
KASU 200305Z 05002KT 04/M03 A3031 RMK A01 T00401033  RH  059%=      5-min Rain = 0
KASU 200310Z 09001KT 03/M03 A303 RMK A01 T00321032  RH  063%=      5-min Rain = 0
KASU 200315Z 19002KT 02/M03 A303 RMK A01 T00231032  RH  068%=      5-min Rain = 0
KASU 200320Z 21002KT 02/M03 A303 RMK A01 T00241030  RH  068%=      5-min Rain = 0
KASU 200325Z 20001KT 03/M03 A303 RMK A01 T00281030  RH  066%=      5-min Rain = 0
KASU 200330Z 32001KT 03/M03 A303 RMK A01 T00321030  RH  064%=      5-min Rain = 0
KASU 200335Z 26003KT 03/M03 A3031 RMK A01 T00301030  RH  065%=      5-min Rain = 0
KASU 200340Z 30001KT 03/M03 A3031 RMK A01 T00301031  RH  064%=      5-min Rain = 0
KASU 200345Z 02002KT 04/M03 A3031 RMK A01 T00411029  RH  061%=      5-min Rain = 0
KASU 200350Z 02002KT 06/M03 A3031 RMK A01 T00571033  RH  053%=      5-min Rain = 0
KASU 200355Z 00002KT 04/M04 A3032 RMK A01 T00441038  RH  056%=      5-min Rain = 0
KASU 200400Z 01001KT 03/M04 A3031 RMK A01 T00311037  RH  061%=      5-min Rain = 0
KASU 200405Z 22001KT 02/M04 A3032 RMK A01 T00211035  RH  067%=      5-min Rain = 0
KASU 200410Z 22000KT 02/M04 A3032 RMK A01 T00221036  RH  066%=      5-min Rain = 0
KASU 200415Z 02000KT 03/M03 A3032 RMK A01 T00261032  RH  066%=      5-min Rain = 0
KASU 200420Z 01003KT 03/M03 A3032 RMK A01 T00331032  RH  063%=      5-min Rain = 0
KASU 200425Z 01003KT 03/M03 A3032 RMK A01 T00341033  RH  062%=      5-min Rain = 0
KASU 200430Z 01003KT 03/M04 A3032 RMK A01 T00321035  RH  062%=      5-min Rain = 0
KASU 200435Z 36001KT 03/M04 A3033 RMK A01 T00251037  RH  064%=      5-min Rain = 0
KASU 200440Z 35001KT 01/M04 A3033 RMK A01 T00131038  RH  069%=      5-min Rain = 0
KASU 200445Z 24000KT 02/M03 A3033 RMK A01 T00211034  RH  068%=      5-min Rain = 0
KASU 200450Z 25001KT 02/M04 A3034 RMK A01 T00181037  RH  067%=      5-min Rain = 0
KASU 200455Z 26000KT 02/M04 A3034 RMK A01 T00151036  RH  069%=      5-min Rain = 0
KASU 200500Z 24002KT 01/M04 A3035 RMK A01 T00141036  RH  070%=      5-min Rain = 0
KASU 200505Z 24002KT 01/M04 A3035 RMK A01 T00091038  RH  071%=      5-min Rain = 0
KASU 200510Z 24004KT 01/M04 A3035 RMK A01 T00081036  RH  073%=      5-min Rain = 0
KASU 200515Z 25002KT 01/M03 A3035 RMK A01 T00101034  RH  073%=      5-min Rain = 0
KASU 200520Z 18001KT 01/M03 A3034 RMK A01 T00121032  RH  073%=      5-min Rain = 0
KASU 200525Z 17002KT 00/M04 A3034 RMK A01 T00021042  RH  073%=      5-min Rain = 0
KASU 200530Z 14003KT M00/M05 A3034 RMK A01 T10041045  RH  074%=      5-min Rain = 0
KASU 200535Z 16002KT 00/04 A3034 RMK A01 T00000-39  RH  075%=      5-min Rain = 0
KASU 200540Z 16000KT 01/M04 A3034 RMK A01 T00051036  RH  075%=      5-min Rain = 0
KASU 200545Z 15003KT M00/M04 A3034 RMK A01 T10021042  RH  075%=      5-min Rain = 0
KASU 200550Z 13003KT M00/M04 A3034 RMK A01 T10011038  RH  077%=      5-min Rain = 0
KASU 200555Z 10002KT 00/04 A3035 RMK A01 T00-00-39  RH  076%=      5-min Rain = 0

Page generated in 0.0091 seconds.